sensor_id;sensor_type;location;lat;lon;timestamp;P1;durP1;ratioP1;P2;durP2;ratioP2
6163;SDS011;3114;48.362;10.994;2023-06-22T00:00:48;6.85;;;4.70;;
6163;SDS011;3114;48.362;10.994;2023-06-22T00:03:16;5.95;;;4.30;;
6163;SDS011;3114;48.362;10.994;2023-06-22T00:05:44;8.55;;;4.63;;
6163;SDS011;3114;48.362;10.994;2023-06-22T00:08:11;9.30;;;4.70;;
6163;SDS011;3114;48.362;10.994;2023-06-22T00:10:39;7.50;;;4.32;;
6163;SDS011;3114;48.362;10.994;2023-06-22T00:13:07;10.25;;;4.10;;
6163;SDS011;3114;48.362;10.994;2023-06-22T00:15:35;8.02;;;4.63;;
6163;SDS011;3114;48.362;10.994;2023-06-22T00:18:03;9.63;;;4.45;;
6163;SDS011;3114;48.362;10.994;2023-06-22T00:20:30;8.57;;;4.65;;
6163;SDS011;3114;48.362;10.994;2023-06-22T00:22:58;9.48;;;4.78;;
6163;SDS011;3114;48.362;10.994;2023-06-22T00:25:25;8.88;;;4.68;;
6163;SDS011;3114;48.362;10.994;2023-06-22T00:27:52;9.77;;;4.72;;
6163;SDS011;3114;48.362;10.994;2023-06-22T00:30:21;8.30;;;4.22;;
6163;SDS011;3114;48.362;10.994;2023-06-22T00:32:47;11.38;;;4.65;;
6163;SDS011;3114;48.362;10.994;2023-06-22T00:35:14;10.68;;;4.10;;
6163;SDS011;3114;48.362;10.994;2023-06-22T00:37:41;6.40;;;4.20;;
6163;SDS011;3114;48.362;10.994;2023-06-22T00:40:08;6.72;;;4.40;;
6163;SDS011;3114;48.362;10.994;2023-06-22T00:42:37;8.25;;;4.15;;
6163;SDS011;3114;48.362;10.994;2023-06-22T00:45:04;10.32;;;4.95;;
6163;SDS011;3114;48.362;10.994;2023-06-22T00:47:34;12.63;;;4.40;;
6163;SDS011;3114;48.362;10.994;2023-06-22T00:50:03;10.73;;;4.55;;
6163;SDS011;3114;48.362;10.994;2023-06-22T00:52:32;5.90;;;3.88;;
6163;SDS011;3114;48.362;10.994;2023-06-22T00:55:00;7.40;;;4.90;;
6163;SDS011;3114;48.362;10.994;2023-06-22T00:57:28;10.15;;;4.10;;
6163;SDS011;3114;48.362;10.994;2023-06-22T00:59:56;9.32;;;4.07;;
6163;SDS011;3114;48.362;10.994;2023-06-22T01:02:23;6.50;;;4.00;;
6163;SDS011;3114;48.362;10.994;2023-06-22T01:04:51;7.03;;;4.03;;
6163;SDS011;3114;48.362;10.994;2023-06-22T01:07:21;7.68;;;4.10;;
6163;SDS011;3114;48.362;10.994;2023-06-22T01:09:56;8.00;;;4.25;;
6163;SDS011;3114;48.362;10.994;2023-06-22T01:12:30;8.23;;;4.32;;
6163;SDS011;3114;48.362;10.994;2023-06-22T01:15:02;8.20;;;4.55;;
6163;SDS011;3114;48.362;10.994;2023-06-22T01:17:35;8.15;;;4.38;;
6163;SDS011;3114;48.362;10.994;2023-06-22T01:20:04;7.07;;;4.47;;
6163;SDS011;3114;48.362;10.994;2023-06-22T01:22:38;7.63;;;4.40;;
6163;SDS011;3114;48.362;10.994;2023-06-22T01:25:19;9.30;;;4.93;;
6163;SDS011;3114;48.362;10.994;2023-06-22T01:27:53;7.60;;;4.07;;
6163;SDS011;3114;48.362;10.994;2023-06-22T01:30:27;8.35;;;4.43;;
6163;SDS011;3114;48.362;10.994;2023-06-22T01:32:56;6.40;;;4.32;;
6163;SDS011;3114;48.362;10.994;2023-06-22T01:35:24;7.68;;;4.45;;
6163;SDS011;3114;48.362;10.994;2023-06-22T01:37:52;10.63;;;4.28;;
6163;SDS011;3114;48.362;10.994;2023-06-22T01:40:20;9.98;;;4.22;;
6163;SDS011;3114;48.362;10.994;2023-06-22T01:42:48;10.85;;;4.47;;
6163;SDS011;3114;48.362;10.994;2023-06-22T01:45:16;7.88;;;4.20;;
6163;SDS011;3114;48.362;10.994;2023-06-22T01:47:46;9.88;;;4.32;;
6163;SDS011;3114;48.362;10.994;2023-06-22T01:50:13;7.00;;;4.00;;
6163;SDS011;3114;48.362;10.994;2023-06-22T01:52:40;11.20;;;4.40;;
6163;SDS011;3114;48.362;10.994;2023-06-22T01:55:08;8.48;;;4.25;;
6163;SDS011;3114;48.362;10.994;2023-06-22T01:57:35;8.13;;;4.30;;
6163;SDS011;3114;48.362;10.994;2023-06-22T02:00:03;8.02;;;4.30;;
6163;SDS011;3114;48.362;10.994;2023-06-22T02:02:32;10.13;;;4.07;;
6163;SDS011;3114;48.362;10.994;2023-06-22T02:05:06;7.93;;;4.55;;
6163;SDS011;3114;48.362;10.994;2023-06-22T02:07:37;9.48;;;3.97;;
6163;SDS011;3114;48.362;10.994;2023-06-22T02:10:11;7.30;;;4.18;;
6163;SDS011;3114;48.362;10.994;2023-06-22T02:12:40;7.03;;;4.10;;
6163;SDS011;3114;48.362;10.994;2023-06-22T02:15:09;10.25;;;4.13;;
6163;SDS011;3114;48.362;10.994;2023-06-22T02:17:37;7.57;;;4.40;;
6163;SDS011;3114;48.362;10.994;2023-06-22T02:20:06;9.15;;;4.50;;
6163;SDS011;3114;48.362;10.994;2023-06-22T02:22:38;10.13;;;4.35;;
6163;SDS011;3114;48.362;10.994;2023-06-22T02:25:05;6.93;;;4.25;;
6163;SDS011;3114;48.362;10.994;2023-06-22T02:27:33;6.38;;;4.70;;
6163;SDS011;3114;48.362;10.994;2023-06-22T02:30:00;10.48;;;4.93;;
6163;SDS011;3114;48.362;10.994;2023-06-22T02:32:27;7.50;;;4.50;;
6163;SDS011;3114;48.362;10.994;2023-06-22T02:34:54;8.57;;;4.80;;
6163;SDS011;3114;48.362;10.994;2023-06-22T02:37:22;13.65;;;4.63;;
6163;SDS011;3114;48.362;10.994;2023-06-22T02:39:50;9.75;;;4.25;;
6163;SDS011;3114;48.362;10.994;2023-06-22T02:42:17;10.30;;;4.95;;
6163;SDS011;3114;48.362;10.994;2023-06-22T02:44:45;11.23;;;4.78;;
6163;SDS011;3114;48.362;10.994;2023-06-22T02:47:12;7.28;;;5.25;;
6163;SDS011;3114;48.362;10.994;2023-06-22T02:49:39;10.95;;;5.22;;
6163;SDS011;3114;48.362;10.994;2023-06-22T02:52:07;8.32;;;4.53;;
6163;SDS011;3114;48.362;10.994;2023-06-22T02:54:35;9.05;;;5.10;;
6163;SDS011;3114;48.362;10.994;2023-06-22T02:57:02;10.80;;;4.88;;
6163;SDS011;3114;48.362;10.994;2023-06-22T02:59:32;7.47;;;4.70;;
6163;SDS011;3114;48.362;10.994;2023-06-22T03:01:59;11.98;;;5.22;;
6163;SDS011;3114;48.362;10.994;2023-06-22T03:04:27;10.27;;;5.05;;
6163;SDS011;3114;48.362;10.994;2023-06-22T03:06:56;10.00;;;5.30;;
6163;SDS011;3114;48.362;10.994;2023-06-22T03:09:26;9.43;;;5.50;;
6163;SDS011;3114;48.362;10.994;2023-06-22T03:11:55;10.50;;;5.20;;
6163;SDS011;3114;48.362;10.994;2023-06-22T03:14:22;10.15;;;5.68;;
6163;SDS011;3114;48.362;10.994;2023-06-22T03:16:48;11.13;;;5.93;;
6163;SDS011;3114;48.362;10.994;2023-06-22T03:19:15;10.65;;;5.85;;
6163;SDS011;3114;48.362;10.994;2023-06-22T03:21:42;8.55;;;5.95;;
6163;SDS011;3114;48.362;10.994;2023-06-22T03:24:09;8.95;;;5.35;;
6163;SDS011;3114;48.362;10.994;2023-06-22T03:26:36;8.88;;;5.85;;
6163;SDS011;3114;48.362;10.994;2023-06-22T03:29:04;13.25;;;6.32;;
6163;SDS011;3114;48.362;10.994;2023-06-22T03:31:31;12.68;;;5.80;;
6163;SDS011;3114;48.362;10.994;2023-06-22T03:33:58;8.30;;;6.03;;
6163;SDS011;3114;48.362;10.994;2023-06-22T03:36:25;10.40;;;5.60;;
6163;SDS011;3114;48.362;10.994;2023-06-22T03:38:51;9.63;;;5.75;;
6163;SDS011;3114;48.362;10.994;2023-06-22T03:41:18;9.85;;;5.68;;
6163;SDS011;3114;48.362;10.994;2023-06-22T03:43:45;13.57;;;5.60;;
6163;SDS011;3114;48.362;10.994;2023-06-22T03:46:14;9.32;;;5.78;;
6163;SDS011;3114;48.362;10.994;2023-06-22T03:48:41;7.55;;;5.45;;
6163;SDS011;3114;48.362;10.994;2023-06-22T03:51:07;8.35;;;5.53;;
6163;SDS011;3114;48.362;10.994;2023-06-22T03:53:34;6.90;;;5.55;;
6163;SDS011;3114;48.362;10.994;2023-06-22T03:56:01;11.27;;;6.00;;
6163;SDS011;3114;48.362;10.994;2023-06-22T03:58:28;9.00;;;5.25;;
6163;SDS011;3114;48.362;10.994;2023-06-22T04:00:57;10.82;;;5.90;;
6163;SDS011;3114;48.362;10.994;2023-06-22T04:03:27;9.40;;;5.60;;
6163;SDS011;3114;48.362;10.994;2023-06-22T04:05:54;9.77;;;5.80;;
6163;SDS011;3114;48.362;10.994;2023-06-22T04:08:20;7.72;;;5.30;;
6163;SDS011;3114;48.362;10.994;2023-06-22T04:10:47;8.55;;;5.35;;
6163;SDS011;3114;48.362;10.994;2023-06-22T04:13:14;8.75;;;5.30;;
6163;SDS011;3114;48.362;10.994;2023-06-22T04:15:41;8.20;;;5.25;;
6163;SDS011;3114;48.362;10.994;2023-06-22T04:18:08;10.10;;;5.53;;
6163;SDS011;3114;48.362;10.994;2023-06-22T04:20:36;9.90;;;5.53;;
6163;SDS011;3114;48.362;10.994;2023-06-22T04:23:03;9.77;;;5.40;;
6163;SDS011;3114;48.362;10.994;2023-06-22T04:25:30;8.75;;;5.57;;
6163;SDS011;3114;48.362;10.994;2023-06-22T04:27:57;9.45;;;5.88;;
6163;SDS011;3114;48.362;10.994;2023-06-22T04:30:24;7.47;;;5.28;;
6163;SDS011;3114;48.362;10.994;2023-06-22T04:32:50;9.70;;;5.35;;
6163;SDS011;3114;48.362;10.994;2023-06-22T04:35:22;8.18;;;5.10;;
6163;SDS011;3114;48.362;10.994;2023-06-22T04:37:52;9.18;;;5.10;;
6163;SDS011;3114;48.362;10.994;2023-06-22T04:40:21;8.73;;;4.60;;
6163;SDS011;3114;48.362;10.994;2023-06-22T04:42:48;7.15;;;4.57;;
6163;SDS011;3114;48.362;10.994;2023-06-22T04:45:18;8.85;;;4.70;;
6163;SDS011;3114;48.362;10.994;2023-06-22T04:47:46;7.43;;;4.78;;
6163;SDS011;3114;48.362;10.994;2023-06-22T04:50:13;7.32;;;4.75;;
6163;SDS011;3114;48.362;10.994;2023-06-22T04:52:40;11.70;;;5.10;;
6163;SDS011;3114;48.362;10.994;2023-06-22T04:55:09;7.75;;;5.10;;
6163;SDS011;3114;48.362;10.994;2023-06-22T04:57:36;10.75;;;5.25;;
6163;SDS011;3114;48.362;10.994;2023-06-22T05:00:05;6.85;;;4.78;;
6163;SDS011;3114;48.362;10.994;2023-06-22T05:02:41;14.25;;;5.90;;
6163;SDS011;3114;48.362;10.994;2023-06-22T05:05:09;12.02;;;5.65;;
6163;SDS011;3114;48.362;10.994;2023-06-22T05:07:38;9.63;;;5.78;;
6163;SDS011;3114;48.362;10.994;2023-06-22T05:10:08;8.05;;;5.07;;
6163;SDS011;3114;48.362;10.994;2023-06-22T05:12:38;9.63;;;5.05;;
6163;SDS011;3114;48.362;10.994;2023-06-22T05:15:06;7.15;;;4.75;;
6163;SDS011;3114;48.362;10.994;2023-06-22T05:17:34;13.50;;;5.63;;
6163;SDS011;3114;48.362;10.994;2023-06-22T05:20:01;9.52;;;5.32;;
6163;SDS011;3114;48.362;10.994;2023-06-22T05:22:31;11.25;;;5.47;;
6163;SDS011;3114;48.362;10.994;2023-06-22T05:24:58;7.45;;;5.13;;
6163;SDS011;3114;48.362;10.994;2023-06-22T05:27:26;8.57;;;5.50;;
6163;SDS011;3114;48.362;10.994;2023-06-22T05:29:53;9.82;;;6.10;;
6163;SDS011;3114;48.362;10.994;2023-06-22T05:32:20;12.38;;;5.55;;
6163;SDS011;3114;48.362;10.994;2023-06-22T05:34:47;10.50;;;5.93;;
6163;SDS011;3114;48.362;10.994;2023-06-22T05:37:14;9.10;;;6.40;;
6163;SDS011;3114;48.362;10.994;2023-06-22T05:39:41;10.70;;;6.00;;
6163;SDS011;3114;48.362;10.994;2023-06-22T05:42:08;12.05;;;6.13;;
6163;SDS011;3114;48.362;10.994;2023-06-22T05:44:37;12.07;;;6.32;;
6163;SDS011;3114;48.362;10.994;2023-06-22T05:47:05;12.73;;;6.03;;
6163;SDS011;3114;48.362;10.994;2023-06-22T05:49:32;9.57;;;6.65;;
6163;SDS011;3114;48.362;10.994;2023-06-22T05:52:00;10.90;;;6.43;;
6163;SDS011;3114;48.362;10.994;2023-06-22T05:54:28;8.30;;;6.15;;
6163;SDS011;3114;48.362;10.994;2023-06-22T05:56:56;15.45;;;6.65;;
6163;SDS011;3114;48.362;10.994;2023-06-22T05:59:24;7.82;;;6.43;;
6163;SDS011;3114;48.362;10.994;2023-06-22T06:01:53;12.82;;;6.40;;
6163;SDS011;3114;48.362;10.994;2023-06-22T06:04:20;13.50;;;6.43;;
6163;SDS011;3114;48.362;10.994;2023-06-22T06:06:46;12.88;;;6.03;;
6163;SDS011;3114;48.362;10.994;2023-06-22T06:09:13;9.13;;;5.53;;
6163;SDS011;3114;48.362;10.994;2023-06-22T06:11:40;11.95;;;5.97;;
6163;SDS011;3114;48.362;10.994;2023-06-22T06:14:07;11.70;;;5.95;;
6163;SDS011;3114;48.362;10.994;2023-06-22T06:16:34;8.15;;;5.38;;
6163;SDS011;3114;48.362;10.994;2023-06-22T06:19:02;9.57;;;5.47;;
6163;SDS011;3114;48.362;10.994;2023-06-22T06:21:29;10.25;;;5.20;;
6163;SDS011;3114;48.362;10.994;2023-06-22T06:23:56;10.13;;;5.07;;
6163;SDS011;3114;48.362;10.994;2023-06-22T06:26:23;7.40;;;4.43;;
6163;SDS011;3114;48.362;10.994;2023-06-22T06:28:54;9.18;;;4.90;;
6163;SDS011;3114;48.362;10.994;2023-06-22T06:31:22;10.50;;;4.57;;
6163;SDS011;3114;48.362;10.994;2023-06-22T06:33:48;6.90;;;4.25;;
6163;SDS011;3114;48.362;10.994;2023-06-22T06:36:17;7.65;;;4.40;;
6163;SDS011;3114;48.362;10.994;2023-06-22T06:38:44;11.30;;;4.63;;
6163;SDS011;3114;48.362;10.994;2023-06-22T06:41:12;6.63;;;4.53;;
6163;SDS011;3114;48.362;10.994;2023-06-22T06:43:39;7.95;;;4.43;;
6163;SDS011;3114;48.362;10.994;2023-06-22T06:46:07;10.23;;;4.63;;
6163;SDS011;3114;48.362;10.994;2023-06-22T06:48:34;9.27;;;4.72;;
6163;SDS011;3114;48.362;10.994;2023-06-22T06:51:01;9.32;;;4.43;;
6163;SDS011;3114;48.362;10.994;2023-06-22T06:53:30;14.15;;;4.47;;
6163;SDS011;3114;48.362;10.994;2023-06-22T06:55:56;6.68;;;4.30;;
6163;SDS011;3114;48.362;10.994;2023-06-22T06:58:23;9.63;;;4.97;;
6163;SDS011;3114;48.362;10.994;2023-06-22T07:00:50;9.02;;;4.40;;
6163;SDS011;3114;48.362;10.994;2023-06-22T07:03:17;10.10;;;4.40;;
6163;SDS011;3114;48.362;10.994;2023-06-22T07:05:44;8.77;;;4.63;;
6163;SDS011;3114;48.362;10.994;2023-06-22T07:08:11;8.93;;;4.22;;
6163;SDS011;3114;48.362;10.994;2023-06-22T07:10:39;7.28;;;3.95;;
6163;SDS011;3114;48.362;10.994;2023-06-22T07:13:06;10.27;;;4.43;;
6163;SDS011;3114;48.362;10.994;2023-06-22T07:15:33;8.82;;;4.88;;
6163;SDS011;3114;48.362;10.994;2023-06-22T07:18:00;9.70;;;4.50;;
6163;SDS011;3114;48.362;10.994;2023-06-22T07:20:27;9.27;;;5.30;;
6163;SDS011;3114;48.362;10.994;2023-06-22T07:22:53;10.38;;;5.07;;
6163;SDS011;3114;48.362;10.994;2023-06-22T07:25:20;9.43;;;4.68;;
6163;SDS011;3114;48.362;10.994;2023-06-22T07:27:58;12.07;;;5.30;;
6163;SDS011;3114;48.362;10.994;2023-06-22T07:30:27;10.38;;;4.72;;
6163;SDS011;3114;48.362;10.994;2023-06-22T07:32:54;8.45;;;4.72;;
6163;SDS011;3114;48.362;10.994;2023-06-22T07:35:20;12.10;;;5.88;;
6163;SDS011;3114;48.362;10.994;2023-06-22T07:37:47;14.40;;;5.25;;
6163;SDS011;3114;48.362;10.994;2023-06-22T07:40:14;9.15;;;5.10;;
6163;SDS011;3114;48.362;10.994;2023-06-22T07:42:41;11.43;;;4.55;;
6163;SDS011;3114;48.362;10.994;2023-06-22T07:45:09;10.13;;;4.53;;
6163;SDS011;3114;48.362;10.994;2023-06-22T07:47:36;8.68;;;4.75;;
6163;SDS011;3114;48.362;10.994;2023-06-22T07:50:04;11.00;;;4.68;;
6163;SDS011;3114;48.362;10.994;2023-06-22T07:52:31;11.02;;;4.60;;
6163;SDS011;3114;48.362;10.994;2023-06-22T07:54:59;7.22;;;4.88;;
6163;SDS011;3114;48.362;10.994;2023-06-22T07:57:25;9.23;;;4.97;;
6163;SDS011;3114;48.362;10.994;2023-06-22T07:59:58;8.85;;;4.25;;
6163;SDS011;3114;48.362;10.994;2023-06-22T08:02:27;8.35;;;4.78;;
6163;SDS011;3114;48.362;10.994;2023-06-22T08:04:53;18.38;;;5.15;;
6163;SDS011;3114;48.362;10.994;2023-06-22T08:07:20;10.88;;;4.60;;
6163;SDS011;3114;48.362;10.994;2023-06-22T08:09:47;12.38;;;5.53;;
6163;SDS011;3114;48.362;10.994;2023-06-22T08:12:15;12.18;;;4.70;;
6163;SDS011;3114;48.362;10.994;2023-06-22T08:14:43;9.13;;;4.63;;
6163;SDS011;3114;48.362;10.994;2023-06-22T08:17:11;10.57;;;4.70;;
6163;SDS011;3114;48.362;10.994;2023-06-22T08:19:39;12.25;;;4.75;;
6163;SDS011;3114;48.362;10.994;2023-06-22T08:22:07;8.63;;;4.90;;
6163;SDS011;3114;48.362;10.994;2023-06-22T08:24:33;13.95;;;5.22;;
6163;SDS011;3114;48.362;10.994;2023-06-22T08:27:00;13.05;;;5.05;;
6163;SDS011;3114;48.362;10.994;2023-06-22T08:29:27;9.75;;;5.28;;
6163;SDS011;3114;48.362;10.994;2023-06-22T08:31:54;8.95;;;5.03;;
6163;SDS011;3114;48.362;10.994;2023-06-22T08:34:21;15.73;;;5.55;;
6163;SDS011;3114;48.362;10.994;2023-06-22T08:36:51;14.35;;;5.10;;
6163;SDS011;3114;48.362;10.994;2023-06-22T08:39:18;11.85;;;4.70;;
6163;SDS011;3114;48.362;10.994;2023-06-22T08:41:46;7.95;;;4.68;;
6163;SDS011;3114;48.362;10.994;2023-06-22T08:44:13;12.68;;;5.38;;
6163;SDS011;3114;48.362;10.994;2023-06-22T08:46:40;10.68;;;5.57;;
6163;SDS011;3114;48.362;10.994;2023-06-22T08:49:07;10.85;;;4.82;;
6163;SDS011;3114;48.362;10.994;2023-06-22T08:51:34;11.48;;;5.07;;
6163;SDS011;3114;48.362;10.994;2023-06-22T08:54:04;11.55;;;4.95;;
6163;SDS011;3114;48.362;10.994;2023-06-22T08:56:31;9.90;;;5.13;;
6163;SDS011;3114;48.362;10.994;2023-06-22T08:58:58;14.57;;;5.20;;
6163;SDS011;3114;48.362;10.994;2023-06-22T09:01:25;12.70;;;5.47;;
6163;SDS011;3114;48.362;10.994;2023-06-22T09:03:52;11.23;;;5.40;;
6163;SDS011;3114;48.362;10.994;2023-06-22T09:06:22;11.25;;;5.30;;
6163;SDS011;3114;48.362;10.994;2023-06-22T09:08:49;11.90;;;4.90;;
6163;SDS011;3114;48.362;10.994;2023-06-22T09:11:17;12.27;;;5.25;;
6163;SDS011;3114;48.362;10.994;2023-06-22T09:13:52;10.25;;;4.90;;
6163;SDS011;3114;48.362;10.994;2023-06-22T09:16:19;10.43;;;5.35;;
6163;SDS011;3114;48.362;10.994;2023-06-22T09:18:46;12.00;;;5.63;;
6163;SDS011;3114;48.362;10.994;2023-06-22T09:21:14;14.38;;;5.00;;
6163;SDS011;3114;48.362;10.994;2023-06-22T09:23:41;8.68;;;5.20;;
6163;SDS011;3114;48.362;10.994;2023-06-22T09:26:08;9.30;;;5.07;;
6163;SDS011;3114;48.362;10.994;2023-06-22T09:28:37;17.05;;;5.40;;
6163;SDS011;3114;48.362;10.994;2023-06-22T09:31:04;12.95;;;5.63;;
6163;SDS011;3114;48.362;10.994;2023-06-22T09:33:31;10.13;;;5.20;;
6163;SDS011;3114;48.362;10.994;2023-06-22T09:35:58;14.57;;;5.65;;
6163;SDS011;3114;48.362;10.994;2023-06-22T09:38:25;16.35;;;5.18;;
6163;SDS011;3114;48.362;10.994;2023-06-22T09:40:52;8.43;;;4.72;;
6163;SDS011;3114;48.362;10.994;2023-06-22T09:43:19;15.57;;;5.38;;
6163;SDS011;3114;48.362;10.994;2023-06-22T09:45:47;12.07;;;5.45;;
6163;SDS011;3114;48.362;10.994;2023-06-22T09:48:14;11.15;;;5.35;;
6163;SDS011;3114;48.362;10.994;2023-06-22T09:50:41;14.23;;;5.15;;
6163;SDS011;3114;48.362;10.994;2023-06-22T09:53:08;16.17;;;5.53;;
6163;SDS011;3114;48.362;10.994;2023-06-22T09:55:35;15.23;;;5.85;;
6163;SDS011;3114;48.362;10.994;2023-06-22T09:58:02;15.25;;;5.82;;
6163;SDS011;3114;48.362;10.994;2023-06-22T10:00:28;11.85;;;5.55;;
6163;SDS011;3114;48.362;10.994;2023-06-22T10:02:57;14.20;;;5.85;;
6163;SDS011;3114;48.362;10.994;2023-06-22T10:05:24;14.48;;;5.43;;
6163;SDS011;3114;48.362;10.994;2023-06-22T10:07:51;18.20;;;5.80;;
6163;SDS011;3114;48.362;10.994;2023-06-22T10:10:17;19.05;;;5.70;;
6163;SDS011;3114;48.362;10.994;2023-06-22T10:12:45;14.38;;;4.88;;
6163;SDS011;3114;48.362;10.994;2023-06-22T10:15:13;15.27;;;5.22;;
6163;SDS011;3114;48.362;10.994;2023-06-22T10:17:41;17.13;;;5.57;;
6163;SDS011;3114;48.362;10.994;2023-06-22T10:20:09;13.00;;;5.25;;
6163;SDS011;3114;48.362;10.994;2023-06-22T10:22:38;15.73;;;5.32;;
6163;SDS011;3114;48.362;10.994;2023-06-22T10:25:05;12.95;;;5.63;;
6163;SDS011;3114;48.362;10.994;2023-06-22T10:27:33;17.25;;;5.43;;
6163;SDS011;3114;48.362;10.994;2023-06-22T10:30:00;9.30;;;5.13;;
6163;SDS011;3114;48.362;10.994;2023-06-22T10:32:27;10.63;;;4.68;;
6163;SDS011;3114;48.362;10.994;2023-06-22T10:34:54;10.70;;;5.22;;
6163;SDS011;3114;48.362;10.994;2023-06-22T10:37:22;14.25;;;5.68;;
6163;SDS011;3114;48.362;10.994;2023-06-22T10:39:49;11.88;;;6.10;;
6163;SDS011;3114;48.362;10.994;2023-06-22T10:42:16;12.05;;;5.65;;
6163;SDS011;3114;48.362;10.994;2023-06-22T10:44:43;10.70;;;5.32;;
6163;SDS011;3114;48.362;10.994;2023-06-22T10:47:10;12.23;;;5.68;;
6163;SDS011;3114;48.362;10.994;2023-06-22T10:49:37;12.88;;;5.32;;
6163;SDS011;3114;48.362;10.994;2023-06-22T10:52:05;15.05;;;5.38;;
6163;SDS011;3114;48.362;10.994;2023-06-22T10:54:34;15.55;;;5.35;;
6163;SDS011;3114;48.362;10.994;2023-06-22T10:57:01;14.60;;;5.40;;
6163;SDS011;3114;48.362;10.994;2023-06-22T10:59:28;14.30;;;5.25;;
6163;SDS011;3114;48.362;10.994;2023-06-22T11:01:55;12.88;;;5.35;;
6163;SDS011;3114;48.362;10.994;2023-06-22T11:04:22;11.77;;;4.70;;
6163;SDS011;3114;48.362;10.994;2023-06-22T11:06:50;12.10;;;5.18;;
6163;SDS011;3114;48.362;10.994;2023-06-22T11:09:17;14.25;;;4.97;;
6163;SDS011;3114;48.362;10.994;2023-06-22T11:11:47;13.00;;;5.50;;
6163;SDS011;3114;48.362;10.994;2023-06-22T11:14:18;15.35;;;5.03;;
6163;SDS011;3114;48.362;10.994;2023-06-22T11:16:45;35.22;;;5.80;;
6163;SDS011;3114;48.362;10.994;2023-06-22T11:19:12;10.02;;;4.10;;
6163;SDS011;3114;48.362;10.994;2023-06-22T11:21:39;11.45;;;4.65;;
6163;SDS011;3114;48.362;10.994;2023-06-22T11:24:06;10.32;;;4.28;;
6163;SDS011;3114;48.362;10.994;2023-06-22T11:26:33;41.33;;;7.07;;
6163;SDS011;3114;48.362;10.994;2023-06-22T11:29:02;11.82;;;5.88;;
6163;SDS011;3114;48.362;10.994;2023-06-22T11:31:30;16.05;;;5.80;;
6163;SDS011;3114;48.362;10.994;2023-06-22T11:33:57;13.43;;;6.30;;
6163;SDS011;3114;48.362;10.994;2023-06-22T11:36:24;10.25;;;6.00;;
6163;SDS011;3114;48.362;10.994;2023-06-22T11:38:51;11.80;;;5.45;;
6163;SDS011;3114;48.362;10.994;2023-06-22T11:41:18;10.00;;;5.57;;
6163;SDS011;3114;48.362;10.994;2023-06-22T11:43:45;12.10;;;5.85;;
6163;SDS011;3114;48.362;10.994;2023-06-22T11:46:13;13.13;;;5.65;;
6163;SDS011;3114;48.362;10.994;2023-06-22T11:48:40;9.50;;;4.75;;
6163;SDS011;3114;48.362;10.994;2023-06-22T11:51:07;13.07;;;5.28;;
6163;SDS011;3114;48.362;10.994;2023-06-22T11:53:34;13.23;;;4.78;;
6163;SDS011;3114;48.362;10.994;2023-06-22T11:56:01;10.75;;;5.22;;
6163;SDS011;3114;48.362;10.994;2023-06-22T11:58:28;12.68;;;5.90;;
6163;SDS011;3114;48.362;10.994;2023-06-22T12:00:55;13.07;;;6.13;;
6163;SDS011;3114;48.362;10.994;2023-06-22T12:03:23;11.43;;;5.40;;
6163;SDS011;3114;48.362;10.994;2023-06-22T12:05:50;9.07;;;5.03;;
6163;SDS011;3114;48.362;10.994;2023-06-22T12:08:17;8.68;;;5.18;;
6163;SDS011;3114;48.362;10.994;2023-06-22T12:10:44;14.32;;;5.60;;
6163;SDS011;3114;48.362;10.994;2023-06-22T12:13:11;15.40;;;5.40;;
6163;SDS011;3114;48.362;10.994;2023-06-22T12:15:38;10.98;;;5.05;;
6163;SDS011;3114;48.362;10.994;2023-06-22T12:18:04;12.63;;;5.22;;
6163;SDS011;3114;48.362;10.994;2023-06-22T12:20:33;13.77;;;5.50;;
6163;SDS011;3114;48.362;10.994;2023-06-22T12:22:59;12.68;;;5.82;;
6163;SDS011;3114;48.362;10.994;2023-06-22T12:25:27;11.32;;;5.25;;
6163;SDS011;3114;48.362;10.994;2023-06-22T12:27:54;12.40;;;5.25;;
6163;SDS011;3114;48.362;10.994;2023-06-22T12:30:21;15.63;;;7.25;;
6163;SDS011;3114;48.362;10.994;2023-06-22T12:32:48;12.55;;;5.88;;
6163;SDS011;3114;48.362;10.994;2023-06-22T12:35:16;17.63;;;8.15;;
6163;SDS011;3114;48.362;10.994;2023-06-22T12:37:44;9.77;;;5.55;;
6163;SDS011;3114;48.362;10.994;2023-06-22T12:40:11;13.75;;;5.38;;
6163;SDS011;3114;48.362;10.994;2023-06-22T12:42:38;13.68;;;4.93;;
6163;SDS011;3114;48.362;10.994;2023-06-22T12:45:07;8.65;;;4.68;;
6163;SDS011;3114;48.362;10.994;2023-06-22T12:47:34;16.02;;;5.93;;
6163;SDS011;3114;48.362;10.994;2023-06-22T12:50:01;11.60;;;5.18;;
6163;SDS011;3114;48.362;10.994;2023-06-22T12:52:29;12.73;;;5.25;;
6163;SDS011;3114;48.362;10.994;2023-06-22T12:54:58;10.07;;;5.22;;
6163;SDS011;3114;48.362;10.994;2023-06-22T12:57:25;14.18;;;5.10;;
6163;SDS011;3114;48.362;10.994;2023-06-22T12:59:52;14.73;;;5.47;;
6163;SDS011;3114;48.362;10.994;2023-06-22T13:02:19;16.17;;;5.47;;
6163;SDS011;3114;48.362;10.994;2023-06-22T13:04:46;13.52;;;5.75;;
6163;SDS011;3114;48.362;10.994;2023-06-22T13:07:13;13.57;;;5.25;;
6163;SDS011;3114;48.362;10.994;2023-06-22T13:09:39;14.45;;;5.38;;
6163;SDS011;3114;48.362;10.994;2023-06-22T13:12:08;11.48;;;4.85;;
6163;SDS011;3114;48.362;10.994;2023-06-22T13:14:35;8.55;;;5.03;;
6163;SDS011;3114;48.362;10.994;2023-06-22T13:17:02;10.88;;;4.65;;
6163;SDS011;3114;48.362;10.994;2023-06-22T13:19:29;13.25;;;5.20;;
6163;SDS011;3114;48.362;10.994;2023-06-22T13:21:57;13.38;;;4.75;;
6163;SDS011;3114;48.362;10.994;2023-06-22T13:24:25;15.40;;;5.47;;
6163;SDS011;3114;48.362;10.994;2023-06-22T13:26:51;13.15;;;5.35;;
6163;SDS011;3114;48.362;10.994;2023-06-22T13:29:20;20.88;;;5.82;;
6163;SDS011;3114;48.362;10.994;2023-06-22T13:31:47;12.60;;;5.07;;
6163;SDS011;3114;48.362;10.994;2023-06-22T13:34:13;12.65;;;5.28;;
6163;SDS011;3114;48.362;10.994;2023-06-22T13:36:40;16.55;;;5.82;;
6163;SDS011;3114;48.362;10.994;2023-06-22T13:39:07;16.75;;;4.88;;
6163;SDS011;3114;48.362;10.994;2023-06-22T13:41:34;15.88;;;5.45;;
6163;SDS011;3114;48.362;10.994;2023-06-22T13:44:01;17.30;;;5.20;;
6163;SDS011;3114;48.362;10.994;2023-06-22T13:46:29;16.30;;;5.55;;
6163;SDS011;3114;48.362;10.994;2023-06-22T13:48:56;13.32;;;5.47;;
6163;SDS011;3114;48.362;10.994;2023-06-22T13:51:23;15.90;;;4.97;;
6163;SDS011;3114;48.362;10.994;2023-06-22T13:53:50;18.73;;;4.88;;
6163;SDS011;3114;48.362;10.994;2023-06-22T13:56:17;12.80;;;4.57;;
6163;SDS011;3114;48.362;10.994;2023-06-22T13:58:46;14.18;;;5.25;;
6163;SDS011;3114;48.362;10.994;2023-06-22T14:01:13;14.20;;;5.35;;
6163;SDS011;3114;48.362;10.994;2023-06-22T14:03:42;12.48;;;4.95;;
6163;SDS011;3114;48.362;10.994;2023-06-22T14:06:10;18.90;;;5.03;;
6163;SDS011;3114;48.362;10.994;2023-06-22T14:08:37;15.63;;;5.75;;
6163;SDS011;3114;48.362;10.994;2023-06-22T14:11:04;16.90;;;5.47;;
6163;SDS011;3114;48.362;10.994;2023-06-22T14:13:31;11.88;;;5.32;;
6163;SDS011;3114;48.362;10.994;2023-06-22T14:15:58;12.57;;;5.47;;
6163;SDS011;3114;48.362;10.994;2023-06-22T14:18:24;12.75;;;5.75;;
6163;SDS011;3114;48.362;10.994;2023-06-22T14:20:53;14.13;;;5.68;;
6163;SDS011;3114;48.362;10.994;2023-06-22T14:23:20;14.57;;;5.13;;
6163;SDS011;3114;48.362;10.994;2023-06-22T14:25:47;18.70;;;5.05;;
6163;SDS011;3114;48.362;10.994;2023-06-22T14:28:14;14.57;;;4.70;;
6163;SDS011;3114;48.362;10.994;2023-06-22T14:30:41;18.45;;;5.35;;
6163;SDS011;3114;48.362;10.994;2023-06-22T14:33:08;20.83;;;5.45;;
6163;SDS011;3114;48.362;10.994;2023-06-22T14:35:35;11.55;;;4.88;;
6163;SDS011;3114;48.362;10.994;2023-06-22T14:38:03;17.02;;;5.18;;
6163;SDS011;3114;48.362;10.994;2023-06-22T14:40:30;15.80;;;4.95;;
6163;SDS011;3114;48.362;10.994;2023-06-22T14:42:57;16.90;;;5.40;;
6163;SDS011;3114;48.362;10.994;2023-06-22T14:45:24;12.13;;;5.03;;
6163;SDS011;3114;48.362;10.994;2023-06-22T14:47:50;8.05;;;4.57;;
6163;SDS011;3114;48.362;10.994;2023-06-22T14:50:18;14.18;;;5.72;;
6163;SDS011;3114;48.362;10.994;2023-06-22T14:52:45;13.02;;;4.85;;
6163;SDS011;3114;48.362;10.994;2023-06-22T14:55:13;18.55;;;5.40;;